createdAt,value
2022-10-21T00:04:13.702Z,101127.73
2022-10-21T00:09:19.138Z,101123.33
2022-10-21T00:14:24.652Z,101122.72
2022-10-21T00:19:30.102Z,101111.92
2022-10-21T00:24:35.818Z,101101.91
2022-10-21T00:29:41.217Z,101091.78
2022-10-21T00:34:47.465Z,101093.64
2022-10-21T00:39:53.586Z,101094.23
2022-10-21T00:45:08.164Z,101093.22
2022-10-21T00:50:28.680Z,101079.61
2022-10-21T00:55:37.420Z,101076.73
2022-10-21T01:00:43.082Z,101073.75
2022-10-21T01:10:54.781Z,101071.91
2022-10-21T01:16:22.769Z,101059.11
2022-10-21T01:21:37.315Z,101050.63
2022-10-21T01:26:45.741Z,101042.07
2022-10-21T01:32:09.286Z,101042.94
2022-10-21T01:37:23.446Z,101051.99
2022-10-21T01:42:38.287Z,101053.21
2022-10-21T01:47:51.388Z,101050.07
2022-10-21T01:53:05.755Z,101027.98
2022-10-21T01:58:23.724Z,101045.45
2022-10-21T02:03:32.170Z,101050.94
2022-10-21T02:08:37.713Z,101047.87
2022-10-21T02:14:09.858Z,101043.71
2022-10-21T02:19:20.614Z,101041.52
2022-10-21T02:24:40.859Z,101044.48
2022-10-21T02:29:49.495Z,101030.50
2022-10-21T02:35:03.598Z,101005.52
2022-10-21T02:40:14.737Z,101006.98
2022-10-21T02:45:22.471Z,100994.59
2022-10-21T02:50:27.925Z,100977.02
2022-10-21T02:55:33.318Z,100967.48
2022-10-21T03:00:39.025Z,100963.88
2022-10-21T03:05:45.020Z,100970.72
2022-10-21T03:10:53.204Z,100973.29
2022-10-21T03:15:58.548Z,100963.39
2022-10-21T03:21:04.092Z,100961.19
2022-10-21T03:26:09.619Z,100966.85
2022-10-21T03:31:15.170Z,100970.34
2022-10-21T03:36:21.014Z,100959.25
2022-10-21T03:41:26.459Z,100941.81
2022-10-21T03:46:32.082Z,100923.03
2022-10-21T03:51:37.493Z,100887.34
2022-10-21T03:56:43.211Z,100880.91
2022-10-21T04:01:49.067Z,100881.14
2022-10-21T04:06:54.655Z,100862.84
2022-10-21T04:12:00.219Z,100872.84
2022-10-21T04:17:07.865Z,100889.47
2022-10-21T04:22:13.038Z,100869.52
2022-10-21T04:27:18.563Z,100844.09
2022-10-21T04:32:24.176Z,100830.94
2022-10-21T04:37:29.604Z,100827.67
2022-10-21T04:42:35.367Z,100829.55
2022-10-21T04:47:41.036Z,100830.89
2022-10-21T04:52:46.787Z,100834.98
2022-10-21T04:57:52.272Z,100824.12
2022-10-21T05:02:57.904Z,100815.03
2022-10-21T05:08:11.433Z,100785.08
2022-10-21T05:13:14.299Z,100780.19
2022-10-21T05:18:20.799Z,100763.92
2022-10-21T05:23:27.664Z,100767.55
2022-10-21T05:28:33.125Z,100765.18
2022-10-21T05:33:38.578Z,100768.24
2022-10-21T05:38:44.278Z,100769.60
2022-10-21T05:43:50.889Z,100772.48
2022-10-21T05:48:56.592Z,100764.56
2022-10-21T05:54:03.763Z,100763.08
2022-10-21T05:59:10.308Z,100765.42
2022-10-21T06:04:16.155Z,100748.22
2022-10-21T06:09:21.683Z,100743.97
2022-10-21T06:14:27.742Z,100739.73
2022-10-21T06:19:33.263Z,100732.11
2022-10-21T06:24:38.803Z,100737.28
2022-10-21T06:29:44.445Z,100749.09
2022-10-21T06:34:50.035Z,100756.44
2022-10-21T06:39:55.674Z,100758.83
2022-10-21T06:45:01.211Z,100757.58
2022-10-21T06:50:07.640Z,100762.76
2022-10-21T06:55:13.152Z,100786.15
2022-10-21T07:00:19.324Z,100791.69
2022-10-21T07:05:26.637Z,100797.41
2022-10-21T07:10:32.328Z,100792.72
2022-10-21T07:15:37.868Z,100800.88
2022-10-21T07:20:43.513Z,100797.57
2022-10-21T07:25:49.255Z,100801.72
2022-10-21T07:30:54.909Z,100806.64
2022-10-21T07:36:10.025Z,100816.70
2022-10-21T07:41:18.757Z,100817.98
2022-10-21T07:46:25.276Z,100805.05
2022-10-21T07:51:31.451Z,100798.65
2022-10-21T07:56:43.155Z,100784.42
2022-10-21T08:06:54.724Z,100776.97
2022-10-21T08:12:00.392Z,100772.84
2022-10-21T08:17:06.064Z,100763.92
2022-10-21T08:22:12.463Z,100748.56
2022-10-21T08:27:18.483Z,100747.56
2022-10-21T08:32:24.263Z,100742.76
2022-10-21T08:37:29.897Z,100752.19
2022-10-21T08:42:36.572Z,100749.57
2022-10-21T08:47:48.233Z,100753.11
2022-10-21T08:52:59.872Z,100746.20
2022-10-21T08:58:06.493Z,100738.05
2022-10-21T09:03:24.729Z,100742.77
2022-10-21T09:08:40.127Z,100748.08
2022-10-21T09:14:06.938Z,100743.26
2022-10-21T09:19:33.742Z,100733.06
2022-10-21T09:25:06.666Z,100732.69
2022-10-21T09:30:18.191Z,100739.17
2022-10-21T09:35:42.082Z,100739.98
2022-10-21T09:40:50.768Z,100728.94
2022-10-21T09:45:57.219Z,100730.93
2022-10-21T09:51:08.640Z,100716.92
2022-10-21T09:56:38.720Z,100725.86
2022-10-21T10:01:46.156Z,100716.64
2022-10-21T10:06:51.926Z,100709.34
2022-10-21T10:12:06.503Z,100710.58
2022-10-21T10:17:23.924Z,100706.73
2022-10-21T10:22:29.475Z,100694.36
2022-10-21T10:27:35.178Z,100689.57
2022-10-21T10:32:41.074Z,100673.70
2022-10-21T10:37:49.884Z,100667.77
2022-10-21T10:43:10.465Z,100664.41
2022-10-21T10:48:27.710Z,100661.59
2022-10-21T10:53:36.436Z,100657.45
2022-10-21T10:58:45.034Z,100649.37
2022-10-21T11:03:56.326Z,100646.22
2022-10-21T11:09:03.595Z,100650.45
2022-10-21T11:14:20.468Z,100647.30
2022-10-21T11:19:31.557Z,100643.05
2022-10-21T11:24:46.100Z,100640.75
2022-10-21T11:30:03.975Z,100631.69
2022-10-21T11:35:15.283Z,100633.56
2022-10-21T11:40:35.600Z,100638.23
2022-10-21T11:46:09.633Z,100626.77
2022-10-21T11:51:36.521Z,100615.97
2022-10-21T11:56:47.983Z,100597.70
2022-10-21T12:02:05.656Z,100586.83
2022-10-21T12:07:22.790Z,100586.92
2022-10-21T12:12:34.004Z,100575.77
2022-10-21T12:17:39.925Z,100565.64
2022-10-21T12:22:46.148Z,100566.59
2022-10-21T12:28:00.553Z,100563.65
2022-10-21T12:33:17.334Z,100561.82
2022-10-21T12:38:45.498Z,100558.87
2022-10-21T12:43:57.227Z,100558.75
2022-10-21T12:49:08.572Z,100559.73
2022-10-21T12:54:17.025Z,100563.15
2022-10-21T12:59:37.995Z,100568.53
2022-10-21T13:04:48.752Z,100557.98
2022-10-21T13:09:57.208Z,100555.80
2022-10-21T13:15:06.321Z,100567.11
2022-10-21T13:20:20.560Z,100548.20
2022-10-21T13:25:38.603Z,100549.05
2022-10-21T13:30:53.298Z,100557.50
2022-10-21T13:36:04.222Z,100543.19
2022-10-21T13:41:27.949Z,100539.61
2022-10-21T13:46:43.634Z,100540.38
2022-10-21T13:51:49.180Z,100545.76
2022-10-21T13:56:54.705Z,100545.50
2022-10-21T14:02:00.459Z,100554.77
2022-10-21T14:07:09.020Z,100541.95
2022-10-21T14:12:35.331Z,100552.35
2022-10-21T14:17:43.803Z,100549.91
2022-10-21T14:22:51.434Z,100550.03
2022-10-21T14:27:57.467Z,100549.89
2022-10-21T14:33:07.713Z,100543.05
2022-10-21T14:38:30.933Z,100541.72
2022-10-21T14:43:41.850Z,100539.52
2022-10-21T14:48:50.355Z,100542.66
2022-10-21T14:53:59.143Z,100541.45
2022-10-21T14:59:22.589Z,100526.17
2022-10-21T15:04:59.850Z,100526.41
2022-10-21T15:10:09.767Z,100515.03
2022-10-21T15:15:49.773Z,100524.19
2022-10-21T15:21:10.273Z,100515.60
2022-10-21T15:26:35.956Z,100511.45
2022-10-21T15:31:41.817Z,100516.09
2022-10-21T15:36:47.462Z,100513.03
2022-10-21T15:41:55.064Z,100516.34
2022-10-21T15:47:04.700Z,100513.05
2022-10-21T15:52:10.719Z,100504.23
2022-10-21T15:57:24.548Z,100505.20
2022-10-21T16:02:30.111Z,100512.42
2022-10-21T16:07:37.218Z,100511.58
2022-10-21T16:12:42.753Z,100514.27
2022-10-21T16:17:50.867Z,100505.09
2022-10-21T16:22:59.236Z,100511.21
2022-10-21T16:28:05.613Z,100509.13
2022-10-21T16:33:13.065Z,100505.81
2022-10-21T16:38:21.628Z,100502.63
2022-10-21T16:43:25.771Z,100494.42
2022-10-21T16:48:31.313Z,100493.48
2022-10-21T16:53:36.850Z,100496.90
2022-10-21T16:58:42.539Z,100496.78
2022-10-21T17:03:48.163Z,100498.83
2022-10-21T17:08:55.515Z,100493.80
2022-10-21T17:14:03.326Z,100491.37
2022-10-21T17:19:08.866Z,100497.22
2022-10-21T17:24:18.900Z,100489.52
2022-10-21T17:29:24.479Z,100493.92
2022-10-21T17:34:33.061Z,100486.44
2022-10-21T17:39:38.925Z,100486.67
2022-10-21T17:44:45.028Z,100496.94
2022-10-21T17:49:50.432Z,100487.55
2022-10-21T17:54:55.947Z,100491.84
2022-10-21T18:05:10.855Z,100486.70
2022-10-21T18:10:16.322Z,100491.26
2022-10-21T18:15:23.559Z,100489.53
2022-10-21T18:20:29.084Z,100489.04
2022-10-21T18:25:37.109Z,100480.59
2022-10-21T18:30:44.315Z,100482.55
2022-10-21T18:35:50.218Z,100484.28
2022-10-21T18:41:01.852Z,100486.37
2022-10-21T18:46:03.459Z,100482.56
2022-10-21T18:51:11.069Z,100476.70
2022-10-21T18:56:17.499Z,100481.96
2022-10-21T19:01:25.548Z,100485.86
2022-10-21T19:06:39.738Z,100476.07
2022-10-21T19:11:45.736Z,100480.34
2022-10-21T19:16:51.554Z,100485.23
2022-10-21T19:21:57.116Z,100485.99
2022-10-21T19:27:02.693Z,100487.09
2022-10-21T19:32:08.239Z,100487.45
2022-10-21T19:37:13.868Z,100482.05
2022-10-21T19:42:19.342Z,100478.62
2022-10-21T19:47:24.877Z,100484.37
2022-10-21T19:52:30.287Z,100493.53
2022-10-21T19:57:35.825Z,100503.78
2022-10-21T20:02:42.755Z,100498.17
2022-10-21T20:07:48.439Z,100500.61
2022-10-21T20:12:53.997Z,100504.27
2022-10-21T20:18:00.169Z,100503.45
2022-10-21T20:23:05.768Z,100505.98
2022-10-21T20:28:11.250Z,100506.48
2022-10-21T20:33:19.384Z,100500.02
2022-10-21T20:38:25.966Z,100510.28
2022-10-21T20:43:31.589Z,100505.13
2022-10-21T20:48:39.058Z,100507.59
2022-10-21T20:53:52.532Z,100493.88
2022-10-21T20:58:58.353Z,100497.55
2022-10-21T21:04:06.577Z,100495.61
2022-10-21T21:14:20.519Z,100483.11
2022-10-21T21:19:26.054Z,100478.23
2022-10-21T21:24:31.937Z,100473.97
2022-10-21T21:29:37.877Z,100471.88
2022-10-21T21:34:44.446Z,100472.38
2022-10-21T21:39:49.920Z,100475.30
2022-10-21T21:44:55.398Z,100471.48
2022-10-21T21:50:00.938Z,100469.31
2022-10-21T21:55:07.376Z,100466.39
2022-10-21T22:00:13.879Z,100459.66
2022-10-21T22:05:22.468Z,100453.05
2022-10-21T22:10:27.273Z,100450.47
2022-10-21T22:15:47.466Z,100443.15
2022-10-21T22:20:43.605Z,100445.61
2022-10-21T22:25:50.442Z,100450.25
2022-10-21T22:31:01.576Z,100444.75
2022-10-21T22:36:08.422Z,100445.84
2022-10-21T22:41:13.898Z,100443.75
2022-10-21T22:51:26.598Z,100446.56
2022-10-21T22:56:32.244Z,100449.63
2022-10-21T23:01:37.770Z,100459.39
2022-10-21T23:06:43.242Z,100441.05
2022-10-21T23:11:48.789Z,100427.50
2022-10-21T23:16:54.324Z,100432.16
2022-10-21T23:22:00.199Z,100435.22
2022-10-21T23:27:05.746Z,100432.52
2022-10-21T23:32:11.305Z,100433.51
2022-10-21T23:37:16.854Z,100428.38
2022-10-21T23:42:22.550Z,100429.37
2022-10-21T23:47:28.173Z,100446.35
2022-10-21T23:52:33.800Z,100456.02
2022-10-21T23:57:39.878Z,100460.65
